sensor_id;sensor_type;location;lat;lon;timestamp;pressure;altitude;pressure_sealevel;temperature;humidity
21203;BME280;10759;51.982;9.232;2022-11-20T00:00:55;100058.13;;;-4.39;100.00
21203;BME280;10759;51.982;9.232;2022-11-20T00:03:23;100088.03;;;-4.25;100.00
21203;BME280;10759;51.982;9.232;2022-11-20T00:05:51;100031.59;;;-4.61;100.00
21203;BME280;10759;51.982;9.232;2022-11-20T00:08:19;100050.84;;;-4.57;100.00
21203;BME280;10759;51.982;9.232;2022-11-20T00:10:49;100071.03;;;-4.50;100.00
21203;BME280;10759;51.982;9.232;2022-11-20T00:13:17;100088.66;;;-4.40;100.00
21203;BME280;10759;51.982;9.232;2022-11-20T00:15:45;100089.75;;;-4.27;100.00
21203;BME280;10759;51.982;9.232;2022-11-20T00:18:13;100088.00;;;-4.28;100.00
21203;BME280;10759;51.982;9.232;2022-11-20T00:20:41;100084.47;;;-4.30;100.00
21203;BME280;10759;51.982;9.232;2022-11-20T00:23:10;100080.19;;;-4.25;100.00
21203;BME280;10759;51.982;9.232;2022-11-20T00:25:38;100044.88;;;-4.50;100.00
21203;BME280;10759;51.982;9.232;2022-11-20T00:28:08;100076.56;;;-4.32;100.00
21203;BME280;10759;51.982;9.232;2022-11-20T00:30:36;100081.75;;;-4.35;100.00
21203;BME280;10759;51.982;9.232;2022-11-20T00:33:04;100081.94;;;-4.25;100.00
21203;BME280;10759;51.982;9.232;2022-11-20T00:35:32;100092.34;;;-4.27;100.00
21203;BME280;10759;51.982;9.232;2022-11-20T00:38:00;100088.63;;;-4.41;100.00
21203;BME280;10759;51.982;9.232;2022-11-20T00:40:28;100085.00;;;-4.49;100.00
21203;BME280;10759;51.982;9.232;2022-11-20T00:42:56;100081.72;;;-4.38;100.00
21203;BME280;10759;51.982;9.232;2022-11-20T00:45:25;100060.56;;;-4.48;100.00
21203;BME280;10759;51.982;9.232;2022-11-20T00:47:53;100080.91;;;-4.34;100.00
21203;BME280;10759;51.982;9.232;2022-11-20T00:50:21;100073.03;;;-4.35;100.00
21203;BME280;10759;51.982;9.232;2022-11-20T00:52:49;100074.75;;;-4.37;100.00
21203;BME280;10759;51.982;9.232;2022-11-20T00:55:17;99985.69;;;-4.93;100.00
21203;BME280;10759;51.982;9.232;2022-11-20T00:57:45;100072.91;;;-4.41;100.00
21203;BME280;10759;51.982;9.232;2022-11-20T01:00:13;100065.06;;;-4.41;100.00
21203;BME280;10759;51.982;9.232;2022-11-20T01:02:43;100063.19;;;-4.48;100.00
21203;BME280;10759;51.982;9.232;2022-11-20T01:05:11;100063.22;;;-4.47;100.00
21203;BME280;10759;51.982;9.232;2022-11-20T01:07:39;100064.66;;;-4.64;100.00
21203;BME280;10759;51.982;9.232;2022-11-20T01:10:08;100020.34;;;-5.04;100.00
21203;BME280;10759;51.982;9.232;2022-11-20T01:12:36;100057.75;;;-4.61;100.00
21203;BME280;10759;51.982;9.232;2022-11-20T01:15:05;100062.16;;;-4.58;100.00
21203;BME280;10759;51.982;9.232;2022-11-20T01:17:33;99980.28;;;-5.04;100.00
21203;BME280;10759;51.982;9.232;2022-11-20T01:20:03;100043.56;;;-4.73;100.00
21203;BME280;10759;51.982;9.232;2022-11-20T01:22:32;100036.72;;;-4.67;100.00
21203;BME280;10759;51.982;9.232;2022-11-20T01:25:00;100057.81;;;-4.58;100.00
21203;BME280;10759;51.982;9.232;2022-11-20T01:27:28;100028.34;;;-4.96;100.00
21203;BME280;10759;51.982;9.232;2022-11-20T01:29:56;99972.22;;;-5.15;100.00
21203;BME280;10759;51.982;9.232;2022-11-20T01:32:27;100052.47;;;-4.64;100.00
21203;BME280;10759;51.982;9.232;2022-11-20T01:34:55;100055.78;;;-4.74;100.00
21203;BME280;10759;51.982;9.232;2022-11-20T01:37:24;100062.50;;;-4.85;100.00
21203;BME280;10759;51.982;9.232;2022-11-20T01:39:52;100045.69;;;-5.00;100.00
21203;BME280;10759;51.982;9.232;2022-11-20T01:42:20;100053.56;;;-4.98;100.00
21203;BME280;10759;51.982;9.232;2022-11-20T01:48:07;100030.66;;;-5.10;100.00
21203;BME280;10759;51.982;9.232;2022-11-20T01:50:36;99951.66;;;-5.44;100.00
21203;BME280;10759;51.982;9.232;2022-11-20T01:53:08;100032.78;;;-4.92;100.00
21203;BME280;10759;51.982;9.232;2022-11-20T01:55:41;100002.00;;;-5.07;100.00
21203;BME280;10759;51.982;9.232;2022-11-20T01:58:11;100039.06;;;-4.82;100.00
21203;BME280;10759;51.982;9.232;2022-11-20T02:00:40;100045.72;;;-4.98;100.00
21203;BME280;10759;51.982;9.232;2022-11-20T02:03:11;100033.31;;;-5.08;100.00
21203;BME280;10759;51.982;9.232;2022-11-20T02:05:44;100017.38;;;-5.22;100.00
21203;BME280;10759;51.982;9.232;2022-11-20T02:08:15;100031.50;;;-5.14;100.00
21203;BME280;10759;51.982;9.232;2022-11-20T02:10:43;100033.28;;;-5.11;100.00
21203;BME280;10759;51.982;9.232;2022-11-20T02:13:11;99992.88;;;-5.29;100.00
21203;BME280;10759;51.982;9.232;2022-11-20T02:15:56;100017.84;;;-4.98;100.00
21203;BME280;10759;51.982;9.232;2022-11-20T02:18:24;100025.75;;;-4.94;100.00
21203;BME280;10759;51.982;9.232;2022-11-20T02:20:55;100023.97;;;-4.96;100.00
21203;BME280;10759;51.982;9.232;2022-11-20T02:23:30;100024.72;;;-5.04;100.00
21203;BME280;10759;51.982;9.232;2022-11-20T02:26:03;100019.53;;;-5.00;100.00
21203;BME280;10759;51.982;9.232;2022-11-20T02:28:33;99975.19;;;-5.42;100.00
21203;BME280;10759;51.982;9.232;2022-11-20T02:31:01;100031.09;;;-5.34;100.00
21203;BME280;10759;51.982;9.232;2022-11-20T02:33:29;100022.34;;;-5.34;100.00
21203;BME280;10759;51.982;9.232;2022-11-20T02:35:58;99993.50;;;-5.41;100.00
21203;BME280;10759;51.982;9.232;2022-11-20T02:38:26;100016.78;;;-5.09;100.00
21203;BME280;10759;51.982;9.232;2022-11-20T02:40:54;100009.84;;;-5.07;100.00
21203;BME280;10759;51.982;9.232;2022-11-20T02:43:23;99998.44;;;-5.10;100.00
21203;BME280;10759;51.982;9.232;2022-11-20T02:45:51;100007.34;;;-5.01;100.00
21203;BME280;10759;51.982;9.232;2022-11-20T02:48:20;99974.84;;;-5.15;100.00
21203;BME280;10759;51.982;9.232;2022-11-20T02:50:50;100013.34;;;-5.05;100.00
21203;BME280;10759;51.982;9.232;2022-11-20T02:53:19;100008.13;;;-5.05;100.00
21203;BME280;10759;51.982;9.232;2022-11-20T02:55:46;99998.56;;;-5.04;100.00
21203;BME280;10759;51.982;9.232;2022-11-20T02:58:14;99985.28;;;-5.16;100.00
21203;BME280;10759;51.982;9.232;2022-11-20T03:00:44;100008.13;;;-5.06;100.00
21203;BME280;10759;51.982;9.232;2022-11-20T03:03:12;100004.69;;;-5.02;100.00
21203;BME280;10759;51.982;9.232;2022-11-20T03:05:40;99993.13;;;-5.15;100.00
21203;BME280;10759;51.982;9.232;2022-11-20T03:08:08;100002.19;;;-4.96;100.00
21203;BME280;10759;51.982;9.232;2022-11-20T03:10:36;100002.47;;;-4.82;100.00
21203;BME280;10759;51.982;9.232;2022-11-20T03:13:04;99903.00;;;-5.38;100.00
21203;BME280;10759;51.982;9.232;2022-11-20T03:15:32;99977.81;;;-4.97;100.00
21203;BME280;10759;51.982;9.232;2022-11-20T03:18:02;99988.25;;;-4.95;100.00
21203;BME280;10759;51.982;9.232;2022-11-20T03:20:32;99988.25;;;-4.97;100.00
21203;BME280;10759;51.982;9.232;2022-11-20T03:23:00;99985.50;;;-5.03;100.00
21203;BME280;10759;51.982;9.232;2022-11-20T03:25:29;99990.22;;;-5.30;100.00
21203;BME280;10759;51.982;9.232;2022-11-20T03:27:57;99983.50;;;-5.18;100.00
21203;BME280;10759;51.982;9.232;2022-11-20T03:30:25;99989.69;;;-5.12;100.00
21203;BME280;10759;51.982;9.232;2022-11-20T03:32:56;99967.03;;;-5.13;100.00
21203;BME280;10759;51.982;9.232;2022-11-20T03:35:26;99982.81;;;-5.07;100.00
21203;BME280;10759;51.982;9.232;2022-11-20T03:37:54;99982.91;;;-5.03;100.00
21203;BME280;10759;51.982;9.232;2022-11-20T03:40:22;99974.38;;;-4.94;100.00
21203;BME280;10759;51.982;9.232;2022-11-20T03:42:50;99974.50;;;-4.86;100.00
21203;BME280;10759;51.982;9.232;2022-11-20T03:45:18;99972.19;;;-4.68;100.00
21203;BME280;10759;51.982;9.232;2022-11-20T03:47:46;99967.78;;;-4.70;100.00
21203;BME280;10759;51.982;9.232;2022-11-20T03:50:14;99974.75;;;-4.71;100.00
21203;BME280;10759;51.982;9.232;2022-11-20T03:52:43;99941.00;;;-5.09;100.00
21203;BME280;10759;51.982;9.232;2022-11-20T03:55:11;99937.28;;;-5.22;100.00
21203;BME280;10759;51.982;9.232;2022-11-20T03:57:39;99961.34;;;-4.91;100.00
21203;BME280;10759;51.982;9.232;2022-11-20T04:00:08;99883.25;;;-5.23;100.00
21203;BME280;10759;51.982;9.232;2022-11-20T04:02:36;99935.38;;;-4.80;100.00
21203;BME280;10759;51.982;9.232;2022-11-20T04:05:05;99942.25;;;-4.85;100.00
21203;BME280;10759;51.982;9.232;2022-11-20T04:07:34;99962.44;;;-4.80;100.00
21203;BME280;10759;51.982;9.232;2022-11-20T04:10:04;99905.88;;;-5.23;100.00
21203;BME280;10759;51.982;9.232;2022-11-20T04:12:32;99837.25;;;-5.63;100.00
21203;BME280;10759;51.982;9.232;2022-11-20T04:15:01;99963.03;;;-4.94;100.00
21203;BME280;10759;51.982;9.232;2022-11-20T04:17:29;99967.03;;;-5.13;100.00
21203;BME280;10759;51.982;9.232;2022-11-20T04:19:57;99876.69;;;-5.93;100.00
21203;BME280;10759;51.982;9.232;2022-11-20T04:22:25;99922.59;;;-5.61;100.00
21203;BME280;10759;51.982;9.232;2022-11-20T04:24:53;99962.75;;;-5.55;100.00
21203;BME280;10759;51.982;9.232;2022-11-20T04:27:22;99961.78;;;-5.59;100.00
21203;BME280;10759;51.982;9.232;2022-11-20T04:29:51;99930.13;;;-5.74;100.00
21203;BME280;10759;51.982;9.232;2022-11-20T04:32:19;99967.19;;;-5.50;100.00
21203;BME280;10759;51.982;9.232;2022-11-20T04:34:47;99959.97;;;-5.62;100.00
21203;BME280;10759;51.982;9.232;2022-11-20T04:37:15;99917.47;;;-5.98;100.00
21203;BME280;10759;51.982;9.232;2022-11-20T04:39:43;99957.22;;;-5.71;100.00
21203;BME280;10759;51.982;9.232;2022-11-20T04:42:11;99964.38;;;-5.59;100.00
21203;BME280;10759;51.982;9.232;2022-11-20T04:44:59;99866.78;;;-6.11;100.00
21203;BME280;10759;51.982;9.232;2022-11-20T04:47:27;99944.41;;;-5.57;100.00
21203;BME280;10759;51.982;9.232;2022-11-20T04:49:55;99958.44;;;-5.52;100.00
21203;BME280;10759;51.982;9.232;2022-11-20T04:52:23;99965.19;;;-5.63;100.00
21203;BME280;10759;51.982;9.232;2022-11-20T04:54:51;99956.13;;;-5.80;100.00
21203;BME280;10759;51.982;9.232;2022-11-20T04:57:20;99944.53;;;-5.93;100.00
21203;BME280;10759;51.982;9.232;2022-11-20T04:59:48;99946.47;;;-5.85;100.00
21203;BME280;10759;51.982;9.232;2022-11-20T05:02:17;99950.22;;;-5.72;100.00
21203;BME280;10759;51.982;9.232;2022-11-20T05:04:45;99892.91;;;-6.10;100.00
21203;BME280;10759;51.982;9.232;2022-11-20T05:07:14;99951.91;;;-5.74;100.00
21203;BME280;10759;51.982;9.232;2022-11-20T05:09:42;99952.88;;;-5.70;100.00
21203;BME280;10759;51.982;9.232;2022-11-20T05:12:10;99952.81;;;-5.73;100.00
21203;BME280;10759;51.982;9.232;2022-11-20T05:14:38;99876.03;;;-6.27;100.00
21203;BME280;10759;51.982;9.232;2022-11-20T05:17:09;99939.81;;;-5.70;100.00
21203;BME280;10759;51.982;9.232;2022-11-20T05:19:39;99837.72;;;-6.28;100.00
21203;BME280;10759;51.982;9.232;2022-11-20T05:22:07;99940.84;;;-5.62;100.00
21203;BME280;10759;51.982;9.232;2022-11-20T05:24:35;99928.66;;;-5.63;100.00
21203;BME280;10759;51.982;9.232;2022-11-20T05:27:03;99918.13;;;-5.66;100.00
21203;BME280;10759;51.982;9.232;2022-11-20T05:29:31;99838.69;;;-6.23;100.00
21203;BME280;10759;51.982;9.232;2022-11-20T05:31:59;99944.41;;;-5.57;100.00
21203;BME280;10759;51.982;9.232;2022-11-20T05:34:27;99940.25;;;-5.47;100.00
21203;BME280;10759;51.982;9.232;2022-11-20T05:36:56;99944.59;;;-5.48;100.00
21203;BME280;10759;51.982;9.232;2022-11-20T05:39:24;99890.94;;;-5.77;100.00
21203;BME280;10759;51.982;9.232;2022-11-20T05:41:52;99939.88;;;-5.67;100.00
21203;BME280;10759;51.982;9.232;2022-11-20T05:44:34;99949.59;;;-5.60;100.00
21203;BME280;10759;51.982;9.232;2022-11-20T05:47:02;99946.97;;;-5.60;100.00
21203;BME280;10759;51.982;9.232;2022-11-20T05:49:30;99952.25;;;-5.58;100.00
21203;BME280;10759;51.982;9.232;2022-11-20T05:52:00;99922.25;;;-5.76;100.00
21203;BME280;10759;51.982;9.232;2022-11-20T05:54:28;99959.16;;;-5.59;100.00
21203;BME280;10759;51.982;9.232;2022-11-20T05:56:56;99945.97;;;-5.67;100.00
21203;BME280;10759;51.982;9.232;2022-11-20T05:59:24;99954.81;;;-5.60;100.00
21203;BME280;10759;51.982;9.232;2022-11-20T06:01:52;99963.59;;;-5.55;100.00
21203;BME280;10759;51.982;9.232;2022-11-20T06:04:21;99958.88;;;-5.30;100.00
21203;BME280;10759;51.982;9.232;2022-11-20T06:06:49;99846.53;;;-6.23;100.00
21203;BME280;10759;51.982;9.232;2022-11-20T06:09:18;99956.50;;;-5.62;100.00
21203;BME280;10759;51.982;9.232;2022-11-20T06:11:47;99959.06;;;-5.64;100.00
21203;BME280;10759;51.982;9.232;2022-11-20T06:14:15;99877.78;;;-6.26;100.00
21203;BME280;10759;51.982;9.232;2022-11-20T06:16:43;99951.72;;;-5.83;100.00
21203;BME280;10759;51.982;9.232;2022-11-20T06:19:12;99933.34;;;-5.88;100.00
21203;BME280;10759;51.982;9.232;2022-11-20T06:21:40;99893.00;;;-6.05;100.00
21203;BME280;10759;51.982;9.232;2022-11-20T06:24:09;99912.38;;;-5.94;100.00
21203;BME280;10759;51.982;9.232;2022-11-20T06:26:38;99946.72;;;-5.72;100.00
21203;BME280;10759;51.982;9.232;2022-11-20T06:29:06;99951.16;;;-5.68;100.00
21203;BME280;10759;51.982;9.232;2022-11-20T06:31:34;99864.22;;;-6.10;100.00
21203;BME280;10759;51.982;9.232;2022-11-20T06:34:04;99933.66;;;-5.72;100.00
21203;BME280;10759;51.982;9.232;2022-11-20T06:36:33;99898.47;;;-5.93;100.00
21203;BME280;10759;51.982;9.232;2022-11-20T06:39:03;99939.13;;;-5.60;100.00
21203;BME280;10759;51.982;9.232;2022-11-20T06:41:31;99924.63;;;-5.46;100.00
21203;BME280;10759;51.982;9.232;2022-11-20T06:44:00;99865.84;;;-5.69;100.00
21203;BME280;10759;51.982;9.232;2022-11-20T06:46:28;99931.81;;;-5.34;100.00
21203;BME280;10759;51.982;9.232;2022-11-20T06:48:56;99913.31;;;-5.45;100.00
21203;BME280;10759;51.982;9.232;2022-11-20T06:51:24;99875.38;;;-5.73;100.00
21203;BME280;10759;51.982;9.232;2022-11-20T06:53:53;99816.38;;;-6.10;100.00
21203;BME280;10759;51.982;9.232;2022-11-20T06:56:20;99930.69;;;-5.47;100.00
21203;BME280;10759;51.982;9.232;2022-11-20T06:58:48;99919.41;;;-5.46;100.00
21203;BME280;10759;51.982;9.232;2022-11-20T07:01:18;99887.78;;;-5.59;100.00
21203;BME280;10759;51.982;9.232;2022-11-20T07:03:48;99927.44;;;-5.36;100.00
21203;BME280;10759;51.982;9.232;2022-11-20T07:06:20;99877.25;;;-5.66;100.00
21203;BME280;10759;51.982;9.232;2022-11-20T07:08:50;99924.69;;;-5.43;100.00
21203;BME280;10759;51.982;9.232;2022-11-20T07:11:18;99911.19;;;-5.64;100.00
21203;BME280;10759;51.982;9.232;2022-11-20T07:13:46;99936.34;;;-5.69;100.00
21203;BME280;10759;51.982;9.232;2022-11-20T07:16:14;99923.19;;;-5.74;100.00
21203;BME280;10759;51.982;9.232;2022-11-20T07:18:44;99938.22;;;-5.62;100.00
21203;BME280;10759;51.982;9.232;2022-11-20T07:21:16;99934.94;;;-5.53;100.00
21203;BME280;10759;51.982;9.232;2022-11-20T07:23:44;99936.69;;;-5.52;100.00
21203;BME280;10759;51.982;9.232;2022-11-20T07:26:12;99903.22;;;-5.72;100.00
21203;BME280;10759;51.982;9.232;2022-11-20T07:28:44;99932.28;;;-5.55;100.00
21203;BME280;10759;51.982;9.232;2022-11-20T07:31:12;99947.09;;;-5.54;100.00
21203;BME280;10759;51.982;9.232;2022-11-20T07:33:46;99893.66;;;-5.71;100.00
21203;BME280;10759;51.982;9.232;2022-11-20T07:36:14;99948.38;;;-5.32;100.00
21203;BME280;10759;51.982;9.232;2022-11-20T07:38:42;99956.81;;;-5.47;100.00
21203;BME280;10759;51.982;9.232;2022-11-20T07:41:10;99953.16;;;-5.55;100.00
21203;BME280;10759;51.982;9.232;2022-11-20T07:43:38;99944.41;;;-5.57;100.00
21203;BME280;10759;51.982;9.232;2022-11-20T07:46:07;99954.00;;;-5.57;100.00
21203;BME280;10759;51.982;9.232;2022-11-20T07:48:35;99958.59;;;-5.46;100.00
21203;BME280;10759;51.982;9.232;2022-11-20T07:51:05;99959.50;;;-5.44;100.00
21203;BME280;10759;51.982;9.232;2022-11-20T07:53:33;99927.38;;;-5.38;100.00
21203;BME280;10759;51.982;9.232;2022-11-20T07:56:02;99952.28;;;-5.10;100.00
21203;BME280;10759;51.982;9.232;2022-11-20T07:58:31;99963.72;;;-5.03;100.00
21203;BME280;10759;51.982;9.232;2022-11-20T08:01:04;99951.97;;;-4.80;100.00
21203;BME280;10759;51.982;9.232;2022-11-20T08:03:34;99954.47;;;-4.86;100.00
21203;BME280;10759;51.982;9.232;2022-11-20T08:06:06;99957.25;;;-4.77;100.00
21203;BME280;10759;51.982;9.232;2022-11-20T08:08:34;99953.78;;;-4.74;100.00
21203;BME280;10759;51.982;9.232;2022-11-20T08:11:08;99929.84;;;-4.99;100.00
21203;BME280;10759;51.982;9.232;2022-11-20T08:13:53;99953.91;;;-4.66;100.00
21203;BME280;10759;51.982;9.232;2022-11-20T08:16:40;99954.13;;;-4.54;100.00
21203;BME280;10759;51.982;9.232;2022-11-20T08:19:09;99952.34;;;-4.57;100.00
21203;BME280;10759;51.982;9.232;2022-11-20T08:21:39;99939.31;;;-4.54;100.00
21203;BME280;10759;51.982;9.232;2022-11-20T08:24:07;99944.75;;;-4.38;100.00
21203;BME280;10759;51.982;9.232;2022-11-20T08:26:37;99958.09;;;-4.23;100.00
21203;BME280;10759;51.982;9.232;2022-11-20T08:29:05;99774.44;;;-5.21;100.00
21203;BME280;10759;51.982;9.232;2022-11-20T08:31:34;99955.56;;;-4.17;100.00
21203;BME280;10759;51.982;9.232;2022-11-20T08:34:02;99947.31;;;-3.82;100.00
21203;BME280;10759;51.982;9.232;2022-11-20T08:36:35;99896.91;;;-3.65;100.00
21203;BME280;10759;51.982;9.232;2022-11-20T08:39:04;99941.91;;;-3.22;100.00
21203;BME280;10759;51.982;9.232;2022-11-20T08:41:32;99944.34;;;-3.41;100.00
21203;BME280;10759;51.982;9.232;2022-11-20T08:44:03;99812.00;;;-3.84;100.00
21203;BME280;10759;51.982;9.232;2022-11-20T08:46:33;99913.41;;;-2.92;100.00
21203;BME280;10759;51.982;9.232;2022-11-20T08:49:03;99942.59;;;-2.52;100.00
21203;BME280;10759;51.982;9.232;2022-11-20T08:51:31;99929.56;;;-2.40;98.57
21203;BME280;10759;51.982;9.232;2022-11-20T08:53:59;99941.97;;;-2.17;97.68
21203;BME280;10759;51.982;9.232;2022-11-20T08:56:28;99942.00;;;-2.12;97.06
21203;BME280;10759;51.982;9.232;2022-11-20T08:58:57;99922.63;;;-2.30;97.48
21203;BME280;10759;51.982;9.232;2022-11-20T09:01:45;99914.81;;;-2.21;97.39
21203;BME280;10759;51.982;9.232;2022-11-20T09:04:14;99935.97;;;-1.95;95.81
21203;BME280;10759;51.982;9.232;2022-11-20T09:06:42;99938.41;;;-2.25;95.06
21203;BME280;10759;51.982;9.232;2022-11-20T09:09:11;99928.78;;;-2.28;96.54
21203;BME280;10759;51.982;9.232;2022-11-20T09:11:41;99939.50;;;-1.91;96.01
21203;BME280;10759;51.982;9.232;2022-11-20T09:14:09;99908.84;;;-1.93;95.57
21203;BME280;10759;51.982;9.232;2022-11-20T09:16:37;99925.66;;;-1.62;98.48
21203;BME280;10759;51.982;9.232;2022-11-20T09:19:05;99918.47;;;-1.96;98.82
21203;BME280;10759;51.982;9.232;2022-11-20T09:21:53;99936.19;;;-1.55;100.00
21203;BME280;10759;51.982;9.232;2022-11-20T09:24:25;99916.06;;;-1.49;100.00
21203;BME280;10759;51.982;9.232;2022-11-20T09:26:55;99766.06;;;-2.19;100.00
21203;BME280;10759;51.982;9.232;2022-11-20T09:29:23;99923.94;;;-1.46;99.42
21203;BME280;10759;51.982;9.232;2022-11-20T09:31:51;99928.19;;;-1.76;100.00
21203;BME280;10759;51.982;9.232;2022-11-20T09:34:19;99926.56;;;-1.49;100.00
21203;BME280;10759;51.982;9.232;2022-11-20T09:36:47;99862.59;;;-1.59;100.00
21203;BME280;10759;51.982;9.232;2022-11-20T09:39:15;99849.34;;;-1.91;100.00
21203;BME280;10759;51.982;9.232;2022-11-20T09:44:52;99876.50;;;-1.86;100.00
21203;BME280;10759;51.982;9.232;2022-11-20T09:47:29;99902.88;;;-1.65;100.00
21203;BME280;10759;51.982;9.232;2022-11-20T09:50:12;99909.94;;;-1.41;100.00
21203;BME280;10759;51.982;9.232;2022-11-20T09:52:50;99911.75;;;-1.24;100.00
21203;BME280;10759;51.982;9.232;2022-11-20T09:55:24;99839.69;;;-1.94;100.00
21203;BME280;10759;51.982;9.232;2022-11-20T09:57:53;99900.28;;;-1.43;100.00
21203;BME280;10759;51.982;9.232;2022-11-20T10:00:23;99841.59;;;-1.55;100.00
21203;BME280;10759;51.982;9.232;2022-11-20T10:02:55;99899.53;;;-1.02;100.00
21203;BME280;10759;51.982;9.232;2022-11-20T10:05:31;99860.03;;;-1.35;100.00
21203;BME280;10759;51.982;9.232;2022-11-20T10:08:14;99895.13;;;-1.00;100.00
21203;BME280;10759;51.982;9.232;2022-11-20T10:10:46;99906.53;;;-1.11;100.00
21203;BME280;10759;51.982;9.232;2022-11-20T10:13:27;99895.09;;;-1.11;100.00
21203;BME280;10759;51.982;9.232;2022-11-20T10:16:11;99882.84;;;-0.89;100.00
21203;BME280;10759;51.982;9.232;2022-11-20T10:18:50;99880.22;;;-1.03;100.00
21203;BME280;10759;51.982;9.232;2022-11-20T10:21:29;99874.09;;;-0.97;100.00
21203;BME280;10759;51.982;9.232;2022-11-20T10:24:23;99872.34;;;-0.71;100.00
21203;BME280;10759;51.982;9.232;2022-11-20T10:27:02;99863.56;;;-1.06;100.00
21203;BME280;10759;51.982;9.232;2022-11-20T10:29:39;99695.22;;;-1.97;100.00
21203;BME280;10759;51.982;9.232;2022-11-20T10:32:16;99875.88;;;-0.76;100.00
21203;BME280;10759;51.982;9.232;2022-11-20T10:34:49;99867.06;;;-0.46;100.00
21203;BME280;10759;51.982;9.232;2022-11-20T10:37:22;99765.34;;;-0.84;100.00
21203;BME280;10759;51.982;9.232;2022-11-20T10:39:55;99844.22;;;-0.29;100.00
21203;BME280;10759;51.982;9.232;2022-11-20T10:42:29;99849.31;;;0.14;100.00
21203;BME280;10759;51.982;9.232;2022-11-20T10:45:04;99841.47;;;0.07;100.00
21203;BME280;10759;51.982;9.232;2022-11-20T10:47:40;99843.25;;;-0.08;100.00
21203;BME280;10759;51.982;9.232;2022-11-20T10:50:11;99837.16;;;-0.17;100.00
21203;BME280;10759;51.982;9.232;2022-11-20T10:52:54;99816.09;;;-0.20;100.00
21203;BME280;10759;51.982;9.232;2022-11-20T10:55:30;99839.66;;;0.16;100.00
21203;BME280;10759;51.982;9.232;2022-11-20T10:58:04;99840.50;;;0.25;100.00
21203;BME280;10759;51.982;9.232;2022-11-20T11:00:36;99816.72;;;0.37;100.00
21203;BME280;10759;51.982;9.232;2022-11-20T11:03:20;99835.16;;;0.41;100.00
21203;BME280;10759;51.982;9.232;2022-11-20T11:05:50;99835.03;;;0.63;99.18
21203;BME280;10759;51.982;9.232;2022-11-20T11:08:19;99840.44;;;0.37;99.17
21203;BME280;10759;51.982;9.232;2022-11-20T11:10:51;99812.22;;;0.56;99.16
21203;BME280;10759;51.982;9.232;2022-11-20T11:13:22;99814.78;;;0.70;96.55
21203;BME280;10759;51.982;9.232;2022-11-20T11:15:51;99832.28;;;0.80;97.13
21203;BME280;10759;51.982;9.232;2022-11-20T11:18:25;99830.59;;;0.70;95.97
21203;BME280;10759;51.982;9.232;2022-11-20T11:20:55;99826.09;;;0.81;95.36
21203;BME280;10759;51.982;9.232;2022-11-20T11:23:32;99675.50;;;0.04;96.18
21203;BME280;10759;51.982;9.232;2022-11-20T11:26:03;99819.00;;;0.92;96.24
21203;BME280;10759;51.982;9.232;2022-11-20T11:28:32;99817.41;;;0.70;95.81
21203;BME280;10759;51.982;9.232;2022-11-20T11:31:00;99818.19;;;0.81;95.82
21203;BME280;10759;51.982;9.232;2022-11-20T11:33:31;99817.31;;;0.82;96.12
21203;BME280;10759;51.982;9.232;2022-11-20T11:36:02;99813.81;;;0.80;95.59
21203;BME280;10759;51.982;9.232;2022-11-20T11:38:35;99754.25;;;0.47;94.76
21203;BME280;10759;51.982;9.232;2022-11-20T11:41:05;99780.50;;;0.63;95.84
21203;BME280;10759;51.982;9.232;2022-11-20T11:43:35;99805.00;;;0.84;94.96
21203;BME280;10759;51.982;9.232;2022-11-20T11:46:28;99812.88;;;0.87;94.43
21203;BME280;10759;51.982;9.232;2022-11-20T11:49:00;99799.69;;;0.85;94.96
21203;BME280;10759;51.982;9.232;2022-11-20T11:51:34;99785.63;;;0.87;94.85
21203;BME280;10759;51.982;9.232;2022-11-20T11:54:12;99808.28;;;1.14;92.61
21203;BME280;10759;51.982;9.232;2022-11-20T11:56:42;99785.59;;;0.88;91.62
21203;BME280;10759;51.982;9.232;2022-11-20T11:59:18;99803.06;;;1.04;92.77
21203;BME280;10759;51.982;9.232;2022-11-20T12:01:55;99713.78;;;0.54;93.92
21203;BME280;10759;51.982;9.232;2022-11-20T12:04:40;99681.47;;;0.30;94.58
21203;BME280;10759;51.982;9.232;2022-11-20T12:07:13;99777.69;;;0.91;94.42
21203;BME280;10759;51.982;9.232;2022-11-20T12:10:04;99789.91;;;1.01;94.60
21203;BME280;10759;51.982;9.232;2022-11-20T12:12:34;99785.44;;;1.10;94.90
21203;BME280;10759;51.982;9.232;2022-11-20T12:15:10;99788.75;;;1.30;95.11
21203;BME280;10759;51.982;9.232;2022-11-20T12:17:39;99782.66;;;1.25;93.52
21203;BME280;10759;51.982;9.232;2022-11-20T12:20:13;99724.03;;;0.92;93.35
21203;BME280;10759;51.982;9.232;2022-11-20T12:22:45;99773.84;;;1.23;94.75
21203;BME280;10759;51.982;9.232;2022-11-20T12:25:20;99759.88;;;1.15;95.43
21203;BME280;10759;51.982;9.232;2022-11-20T12:30:55;99706.50;;;0.85;95.14
21203;BME280;10759;51.982;9.232;2022-11-20T12:33:44;99750.06;;;1.29;94.58
21203;BME280;10759;51.982;9.232;2022-11-20T12:36:27;99743.91;;;1.27;94.35
21203;BME280;10759;51.982;9.232;2022-11-20T12:39:22;99727.28;;;1.19;96.21
21203;BME280;10759;51.982;9.232;2022-11-20T12:42:05;99757.06;;;1.32;96.69
21203;BME280;10759;51.982;9.232;2022-11-20T12:45:18;99750.84;;;1.37;96.34
21203;BME280;10759;51.982;9.232;2022-11-20T12:48:15;99743.88;;;1.32;96.89
21203;BME280;10759;51.982;9.232;2022-11-20T12:50:53;99716.59;;;1.31;96.00
21203;BME280;10759;51.982;9.232;2022-11-20T12:53:53;99744.56;;;1.50;95.47
21203;BME280;10759;51.982;9.232;2022-11-20T12:56:32;99713.06;;;1.32;93.96
21203;BME280;10759;51.982;9.232;2022-11-20T12:59:21;99745.50;;;1.43;94.19
21203;BME280;10759;51.982;9.232;2022-11-20T13:01:56;99742.88;;;1.40;94.79
21203;BME280;10759;51.982;9.232;2022-11-20T13:05:03;99678.19;;;1.01;95.70
21203;BME280;10759;51.982;9.232;2022-11-20T13:07:34;99685.97;;;1.16;97.01
21203;BME280;10759;51.982;9.232;2022-11-20T13:10:05;99623.13;;;0.70;96.64
21203;BME280;10759;51.982;9.232;2022-11-20T13:12:45;99716.56;;;1.33;97.20
21203;BME280;10759;51.982;9.232;2022-11-20T13:15:35;99728.94;;;1.29;97.83
21203;BME280;10759;51.982;9.232;2022-11-20T13:18:05;99737.72;;;1.31;98.08
21203;BME280;10759;51.982;9.232;2022-11-20T13:20:41;99732.59;;;1.16;98.80
21203;BME280;10759;51.982;9.232;2022-11-20T13:23:10;99708.13;;;1.01;99.75